Time,TemperatureF,DewpointF,PressureIn,WindDirection,WindDirectionDegrees,WindSpeedMPH,WindSpeedGustMPH,Humidity,HourlyPrecipIn,Conditions,Clouds,dailyrainin,SoftwareType,DateUTC
2013-03-15 00:10:00,28.4,23.3,30.09,SE,135,0.0,-999.0,81,-99.99,,,0.00,Acu-Link.com,2013-03-15 04:10:00,
2013-03-15 00:25:00,28.4,23.0,30.09,ESE,112,2.0,-999.0,80,-99.99,,,0.00,Acu-Link.com,2013-03-15 04:25:00,
2013-03-15 00:41:00,28.4,22.7,30.09,SSW,202,2.0,-999.0,79,-99.99,,,0.00,Acu-Link.com,2013-03-15 04:41:00,
2013-03-15 01:27:00,28.4,21.8,30.08,SSE,157,3.1,-999.0,76,-99.99,,,0.00,Acu-Link.com,2013-03-15 05:27:00,
2013-03-15 01:42:00,30.2,22.6,30.07,WSW,247,1.6,-999.0,73,-99.99,,,0.00,Acu-Link.com,2013-03-15 05:42:00,
2013-03-15 01:57:00,30.2,22.6,30.07,East,90,0.0,-999.0,73,-99.99,,,0.00,Acu-Link.com,2013-03-15 05:57:00,
2013-03-15 02:13:00,30.2,22.9,30.07,NW,315,0.0,-999.0,74,-99.99,,,0.00,Acu-Link.com,2013-03-15 06:13:00,
2013-03-15 02:28:00,30.2,22.9,30.07,SW,225,1.6,-999.0,74,-99.99,,,0.00,Acu-Link.com,2013-03-15 06:28:00,
2013-03-15 02:43:00,30.2,23.2,30.07,SSW,202,0.0,-999.0,75,-99.99,,,0.00,Acu-Link.com,2013-03-15 06:43:00,
2013-03-15 02:58:00,30.2,23.6,30.06,SW,225,1.1,-999.0,76,-99.99,,,0.00,Acu-Link.com,2013-03-15 06:58:00,
2013-03-15 03:13:00,30.2,23.6,30.05,SW,225,0.0,-999.0,76,-99.99,,,0.00,Acu-Link.com,2013-03-15 07:13:00,
2013-03-15 03:28:00,30.2,23.2,30.04,South,180,0.0,-999.0,75,-99.99,,,0.00,Acu-Link.com,2013-03-15 07:28:00,
2013-03-15 03:44:00,30.2,23.2,30.03,West,270,2.0,-999.0,75,-99.99,,,0.00,Acu-Link.com,2013-03-15 07:44:00,
2013-03-15 03:59:00,32.0,24.7,30.03,SSE,157,1.1,-999.0,74,-99.99,,,0.00,Acu-Link.com,2013-03-15 07:59:00,
2013-03-15 04:14:00,32.0,24.3,30.03,SSW,202,0.0,-999.0,73,-99.99,,,0.00,Acu-Link.com,2013-03-15 08:14:00,
2013-03-15 04:29:00,32.0,24.3,30.02,West,270,1.6,-999.0,73,-99.99,,,0.00,Acu-Link.com,2013-03-15 08:29:00,
2013-03-15 04:44:00,32.0,24.0,30.01,ESE,112,1.6,-999.0,72,-99.99,,,0.00,Acu-Link.com,2013-03-15 08:44:00,
2013-03-15 05:00:00,32.0,24.7,30.01,WSW,247,0.0,-999.0,74,-99.99,,,0.00,Acu-Link.com,2013-03-15 09:00:00,
2013-03-15 05:15:00,32.0,24.7,30.00,East,90,2.0,-999.0,74,-99.99,,,0.00,Acu-Link.com,2013-03-15 09:15:00,
2013-03-15 05:30:00,32.0,24.7,29.99,SW,225,0.0,-999.0,74,-99.99,,,0.00,Acu-Link.com,2013-03-15 09:30:00,
2013-03-15 05:46:00,32.0,24.7,29.99,West,270,1.6,-999.0,74,-99.99,,,0.00,Acu-Link.com,2013-03-15 09:46:00,
2013-03-15 06:01:00,32.0,24.7,29.99,SSW,202,0.0,-999.0,74,-99.99,,,0.00,Acu-Link.com,2013-03-15 10:01:00,
2013-03-15 06:16:00,32.0,24.7,29.97,SSW,202,1.6,-999.0,74,-99.99,,,0.00,Acu-Link.com,2013-03-15 10:16:00,
2013-03-15 06:31:00,32.0,25.0,29.98,West,270,3.6,-999.0,75,-99.99,,,0.00,Acu-Link.com,2013-03-15 10:31:00,
2013-03-15 06:47:00,32.0,25.3,29.98,West,270,1.1,-999.0,76,-99.99,,,0.00,Acu-Link.com,2013-03-15 10:47:00,
2013-03-15 07:17:00,32.0,25.9,29.96,SW,225,1.1,-999.0,78,-99.99,,,0.00,Acu-Link.com,2013-03-15 11:17:00,
2013-03-15 07:32:00,32.0,26.2,29.96,WSW,247,1.6,-999.0,79,-99.99,,,0.00,Acu-Link.com,2013-03-15 11:32:00,
2013-03-15 07:47:00,32.0,26.2,29.95,ESE,112,0.0,-999.0,79,-99.99,,,0.00,Acu-Link.com,2013-03-15 11:47:00,
2013-03-15 08:02:00,32.0,26.2,29.95,West,270,2.7,-999.0,79,-99.99,,,0.00,Acu-Link.com,2013-03-15 12:02:00,
2013-03-15 08:17:00,32.0,25.9,29.94,WSW,247,0.0,-999.0,78,-99.99,,,0.00,Acu-Link.com,2013-03-15 12:17:00,
2013-03-15 08:33:00,33.8,27.7,29.95,SW,225,2.0,-999.0,78,-99.99,,,0.00,Acu-Link.com,2013-03-15 12:33:00,
2013-03-15 08:48:00,33.8,27.4,29.94,SSE,157,2.7,-999.0,77,-99.99,,,0.00,Acu-Link.com,2013-03-15 12:48:00,
2013-03-15 09:03:00,33.8,27.1,29.94,WNW,292,3.1,-999.0,76,-99.99,,,0.00,Acu-Link.com,2013-03-15 13:03:00,
2013-03-15 09:18:00,35.6,28.8,29.94,WSW,247,4.0,-999.0,76,-99.99,,,0.00,Acu-Link.com,2013-03-15 13:18:00,
2013-03-15 09:33:00,35.6,28.8,29.94,SW,225,3.6,-999.0,76,-99.99,,,0.00,Acu-Link.com,2013-03-15 13:33:00,
2013-03-15 09:48:00,35.6,28.8,29.94,SSE,157,3.1,-999.0,76,-99.99,,,0.00,Acu-Link.com,2013-03-15 13:48:00,
2013-03-15 10:03:00,35.6,28.5,29.95,SW,225,2.7,-999.0,75,-99.99,,,0.00,Acu-Link.com,2013-03-15 14:03:00,
2013-03-15 10:18:00,37.4,29.6,29.95,SW,225,2.7,-999.0,73,-99.99,,,0.00,Acu-Link.com,2013-03-15 14:18:00,
2013-03-15 10:34:00,37.4,29.9,29.94,West,270,6.7,-999.0,74,-99.99,,,0.00,Acu-Link.com,2013-03-15 14:34:00,
2013-03-15 10:49:00,37.4,30.2,29.93,ESE,112,1.6,-999.0,75,-99.99,,,0.00,Acu-Link.com,2013-03-15 14:49:00,
2013-03-15 11:04:00,39.2,31.3,29.93,SW,225,2.7,-999.0,73,-99.99,,,0.00,Acu-Link.com,2013-03-15 15:04:00,
2013-03-15 11:19:00,37.4,29.9,29.92,WSW,247,1.6,-999.0,74,-99.99,,,0.00,Acu-Link.com,2013-03-15 15:19:00,
2013-03-15 11:35:00,39.2,31.3,29.91,WNW,292,4.7,-999.0,73,-99.99,,,0.00,Acu-Link.com,2013-03-15 15:35:00,
2013-03-15 11:50:00,39.2,31.3,29.91,SE,135,4.0,-999.0,73,-99.99,,,0.00,Acu-Link.com,2013-03-15 15:50:00,
2013-03-15 12:05:00,39.2,31.3,29.91,SW,225,2.7,-999.0,73,-99.99,,,0.00,Acu-Link.com,2013-03-15 16:05:00,
2013-03-15 12:20:00,41.0,32.7,29.91,WSW,247,2.7,-999.0,72,-99.99,,,0.00,Acu-Link.com,2013-03-15 16:20:00,
2013-03-15 12:35:00,41.0,32.3,29.90,WNW,292,5.1,-999.0,71,-99.99,,,0.00,Acu-Link.com,2013-03-15 16:35:00,
2013-03-15 12:51:00,41.0,32.3,29.89,West,270,5.6,-999.0,71,-99.99,,,0.00,Acu-Link.com,2013-03-15 16:51:00,
2013-03-15 13:06:00,41.0,32.0,29.89,SW,225,6.7,-999.0,70,-99.99,,,0.00,Acu-Link.com,2013-03-15 17:06:00,
2013-03-15 13:21:00,41.0,31.6,29.89,West,270,2.7,-999.0,69,-99.99,,,0.00,Acu-Link.com,2013-03-15 17:21:00,
2013-03-15 13:36:00,42.8,33.3,29.89,South,180,2.0,-999.0,69,-99.99,,,0.00,Acu-Link.com,2013-03-15 17:36:00,
2013-03-15 14:07:00,42.8,33.0,29.88,WSW,247,2.0,-999.0,68,-99.99,,,0.00,Acu-Link.com,2013-03-15 18:07:00,
2013-03-15 14:22:00,42.8,33.0,29.88,North,0,9.8,-999.0,68,-99.99,,,0.00,Acu-Link.com,2013-03-15 18:22:00,
2013-03-15 14:37:00,42.8,33.3,29.87,West,270,5.1,-999.0,69,-99.99,,,0.00,Acu-Link.com,2013-03-15 18:37:00,
2013-03-15 14:52:00,42.8,33.3,29.86,West,270,3.1,-999.0,69,-99.99,,,0.00,Acu-Link.com,2013-03-15 18:52:00,
2013-03-15 15:07:00,42.8,33.0,29.86,WNW,292,3.6,-999.0,68,-99.99,,,0.00,Acu-Link.com,2013-03-15 19:07:00,
2013-03-15 15:23:00,44.6,34.7,29.86,SSW,202,5.1,-999.0,68,-99.99,,,0.00,Acu-Link.com,2013-03-15 19:23:00,
2013-03-15 15:38:00,44.6,34.7,29.85,WNW,292,3.1,-999.0,68,-99.99,,,0.00,Acu-Link.com,2013-03-15 19:38:00,
2013-03-15 15:53:00,44.6,34.7,29.84,SE,135,3.6,-999.0,68,-99.99,,,0.00,Acu-Link.com,2013-03-15 19:53:00,
2013-03-15 16:08:00,44.6,34.3,29.84,West,270,4.0,-999.0,67,-99.99,,,0.00,Acu-Link.com,2013-03-15 20:08:00,
2013-03-15 16:23:00,44.6,34.7,29.83,NE,45,3.1,-999.0,68,-99.99,,,0.00,Acu-Link.com,2013-03-15 20:23:00,
2013-03-15 16:38:00,44.6,35.1,29.84,South,180,4.7,-999.0,69,-99.99,,,0.00,Acu-Link.com,2013-03-15 20:38:00,
2013-03-15 16:53:00,44.6,35.4,29.84,SW,225,1.6,-999.0,70,-99.99,,,0.00,Acu-Link.com,2013-03-15 20:53:00,
2013-03-15 17:08:00,42.8,33.7,29.84,West,270,2.7,-999.0,70,-99.99,,,0.00,Acu-Link.com,2013-03-15 21:08:00,
2013-03-15 17:23:00,44.6,35.4,29.85,NW,315,7.2,-999.0,70,-99.99,,,0.00,Acu-Link.com,2013-03-15 21:23:00,
2013-03-15 17:38:00,42.8,34.1,29.84,WNW,292,2.0,-999.0,71,-99.99,,,0.00,Acu-Link.com,2013-03-15 21:38:00,
2013-03-15 17:53:00,42.8,34.4,29.84,NNE,22,3.1,-999.0,72,-99.99,,,0.00,Acu-Link.com,2013-03-15 21:53:00,
2013-03-15 18:08:00,42.8,35.4,29.85,North,0,1.6,-999.0,75,-99.99,,,0.00,Acu-Link.com,2013-03-15 22:08:00,
2013-03-15 18:23:00,41.0,34.4,29.85,NE,45,2.7,-999.0,77,-99.99,,,0.00,Acu-Link.com,2013-03-15 22:23:00,
2013-03-15 18:38:00,39.2,33.2,29.86,East,90,0.0,-999.0,79,-99.99,,,0.00,Acu-Link.com,2013-03-15 22:38:00,
2013-03-15 18:53:00,37.4,32.4,29.86,WNW,292,0.0,-999.0,82,-99.99,,,0.00,Acu-Link.com,2013-03-15 22:53:00,
2013-03-15 19:08:00,37.4,33.0,29.86,ENE,67,1.6,-999.0,84,-99.99,,,0.00,Acu-Link.com,2013-03-15 23:08:00,
2013-03-15 19:23:00,35.6,31.5,29.87,NNE,22,0.0,-999.0,85,-99.99,,,0.00,Acu-Link.com,2013-03-15 23:23:00,
2013-03-15 19:38:00,35.6,32.1,29.87,NE,45,0.0,-999.0,87,-99.99,,,0.00,Acu-Link.com,2013-03-15 23:38:00,
2013-03-15 19:53:00,35.6,32.4,29.87,East,90,0.0,-999.0,88,-99.99,,,0.00,Acu-Link.com,2013-03-15 23:53:00,
2013-03-15 20:08:00,35.6,32.7,29.87,ENE,67,0.0,-999.0,89,-99.99,,,0.01,Acu-Link.com,2013-03-16 00:08:00,
2013-03-15 20:23:00,33.8,30.9,29.88,NNE,22,0.0,-999.0,89,-99.99,,,0.01,Acu-Link.com,2013-03-16 00:23:00,
2013-03-15 20:38:00,33.8,31.5,29.87,NE,45,0.0,-999.0,91,-99.99,,,0.01,Acu-Link.com,2013-03-16 00:38:00,
2013-03-15 20:53:00,33.8,31.5,29.88,SE,135,0.0,-999.0,91,-99.99,,,0.02,Acu-Link.com,2013-03-16 00:53:00,
2013-03-15 21:08:00,33.8,31.2,29.88,East,90,0.0,-999.0,90,-99.99,,,0.02,Acu-Link.com,2013-03-16 01:08:00,
2013-03-15 21:23:00,33.8,31.2,29.87,East,90,0.0,-999.0,90,-99.99,,,0.02,Acu-Link.com,2013-03-16 01:23:00,
2013-03-15 21:38:00,33.8,31.5,29.87,East,90,0.0,-999.0,91,-99.99,,,0.02,Acu-Link.com,2013-03-16 01:38:00,
2013-03-15 21:53:00,33.8,31.7,29.87,East,90,0.0,-999.0,92,-99.99,,,0.02,Acu-Link.com,2013-03-16 01:53:00,
2013-03-15 22:09:00,32.0,29.7,29.87,East,90,0.0,-999.0,91,-99.99,,,0.02,Acu-Link.com,2013-03-16 02:09:00,
2013-03-15 22:24:00,32.0,29.9,29.87,ESE,112,0.0,-999.0,92,-99.99,,,0.04,Acu-Link.com,2013-03-16 02:24:00,
2013-03-15 22:39:00,32.0,29.9,29.87,SW,225,0.0,-999.0,92,-99.99,,,0.04,Acu-Link.com,2013-03-16 02:39:00,
2013-03-15 22:54:00,32.0,29.9,29.86,SE,135,0.0,-999.0,92,-99.99,,,0.04,Acu-Link.com,2013-03-16 02:54:00,
2013-03-15 23:09:00,32.0,29.9,29.86,SSE,157,0.0,-999.0,92,-99.99,,,0.04,Acu-Link.com,2013-03-16 03:09:00,
2013-03-15 23:24:00,32.0,29.9,29.86,SSE,157,0.0,-999.0,92,-99.99,,,0.04,Acu-Link.com,2013-03-16 03:24:00,
2013-03-15 23:39:00,32.0,29.9,29.85,SSE,157,0.0,-999.0,92,-99.99,,,0.04,Acu-Link.com,2013-03-16 03:39:00,
2013-03-15 23:54:00,32.0,29.9,29.85,SSE,157,0.0,-999.0,92,-99.99,,,0.04,Acu-Link.com,2013-03-16 03:54:00,